createdAt,value
2022-11-25T00:01:05.435Z,100181.22
2022-11-25T00:06:15.963Z,100170.25
2022-11-25T00:11:19.593Z,100163.38
2022-11-25T00:16:23.345Z,100172.13
2022-11-25T00:21:29.578Z,100160.75
2022-11-25T00:26:33.787Z,100154.47
2022-11-25T00:31:41.376Z,100149.41
2022-11-25T00:36:46.031Z,100136.16
2022-11-25T00:42:06.142Z,100119.59
2022-11-25T00:47:12.367Z,100124.97
2022-11-25T00:52:19.007Z,100129.63
2022-11-25T00:57:24.651Z,100130.97
2022-11-25T01:02:27.678Z,100140.56
2022-11-25T01:07:32.243Z,100136.00
2022-11-25T01:12:35.069Z,100133.28
2022-11-25T01:17:37.852Z,100127.13
2022-11-25T01:22:41.972Z,100115.31
2022-11-25T01:27:44.709Z,100119.69
2022-11-25T01:32:47.487Z,100115.16
2022-11-25T01:37:51.663Z,100121.97
2022-11-25T01:42:54.415Z,100130.72
2022-11-25T01:48:01.325Z,100124.56
2022-11-25T01:53:09.148Z,100119.25
2022-11-25T01:58:16.151Z,100120.91
2022-11-25T02:03:23.031Z,100113.88
2022-11-25T02:08:27.741Z,100118.69
2022-11-25T02:13:30.690Z,100115.50
2022-11-25T02:18:33.663Z,100111.91
2022-11-25T02:23:44.616Z,100107.47
2022-11-25T02:28:49.793Z,100095.53
2022-11-25T02:33:53.348Z,100106.16
2022-11-25T02:38:58.053Z,100113.06
2022-11-25T02:44:04.958Z,100103.41
2022-11-25T02:49:10.208Z,100096.25
2022-11-25T02:54:14.482Z,100093.09
2022-11-25T02:59:18.751Z,100102.50
2022-11-25T03:04:22.756Z,100106.09
2022-11-25T03:09:25.577Z,100100.69
2022-11-25T03:14:31.451Z,100095.38
2022-11-25T03:19:34.297Z,100093.22
2022-11-25T03:24:37.273Z,100097.78
2022-11-25T03:29:41.944Z,100100.34
2022-11-25T03:34:44.836Z,100089.03
2022-11-25T03:39:47.765Z,100089.88
2022-11-25T03:44:52.144Z,100083.88
2022-11-25T03:49:55.383Z,100083.22
2022-11-25T03:54:58.370Z,100078.56
2022-11-25T04:00:09.366Z,100075.16
2022-11-25T04:05:20.787Z,100067.16
2022-11-25T04:10:25.110Z,100063.03
2022-11-25T04:15:31.011Z,100053.66
2022-11-25T04:20:35.038Z,100063.75
2022-11-25T04:25:41.112Z,100052.63
2022-11-25T04:30:50.607Z,100057.56
2022-11-25T04:35:53.972Z,100065.47
2022-11-25T04:40:57.248Z,100075.00
2022-11-25T04:46:18.221Z,100088.34
2022-11-25T04:51:26.371Z,100078.22
2022-11-25T04:56:33.734Z,100078.50
2022-11-25T05:01:38.411Z,100089.06
2022-11-25T05:06:59.595Z,100105.13
2022-11-25T05:12:03.037Z,100102.72
2022-11-25T05:17:08.834Z,100094.47
2022-11-25T05:22:12.336Z,100099.16
2022-11-25T05:27:18.105Z,100105.13
2022-11-25T05:32:22.811Z,100105.31
2022-11-25T05:37:25.914Z,100105.91
2022-11-25T05:42:38.122Z,100108.75
2022-11-25T05:47:44.835Z,100093.63
2022-11-25T05:52:51.564Z,100109.22
2022-11-25T05:57:54.507Z,100101.69
2022-11-25T06:02:59.231Z,100105.75
2022-11-25T06:08:02.711Z,100117.38
2022-11-25T06:13:05.845Z,100116.72
2022-11-25T06:18:10.462Z,100115.13
2022-11-25T06:23:14.081Z,100135.56
2022-11-25T06:28:17.034Z,100131.38
2022-11-25T06:33:25.468Z,100136.59
2022-11-25T06:38:29.034Z,100141.53
2022-11-25T06:43:32.715Z,100138.59
2022-11-25T06:48:37.670Z,100135.38
2022-11-25T06:53:41.114Z,100136.78
2022-11-25T06:58:44.845Z,100143.28
2022-11-25T07:03:50.807Z,100151.47
2022-11-25T07:08:53.744Z,100153.09
2022-11-25T07:13:58.569Z,100166.00
2022-11-25T07:19:04.244Z,100162.69
2022-11-25T07:24:08.657Z,100166.88
2022-11-25T07:29:43.997Z,100175.44
2022-11-25T07:34:37.380Z,100185.31
2022-11-25T07:39:40.199Z,100184.25
2022-11-25T07:44:42.972Z,100204.81
2022-11-25T07:50:10.705Z,100209.19
2022-11-25T07:55:13.509Z,100217.56
2022-11-25T08:00:17.303Z,100210.16
2022-11-25T08:05:21.396Z,100218.06
2022-11-25T08:10:24.300Z,100229.78
2022-11-25T08:15:27.105Z,100235.84
2022-11-25T08:20:31.444Z,100236.63
2022-11-25T08:25:34.256Z,100245.56
2022-11-25T08:30:37.213Z,100260.13
2022-11-25T08:35:41.379Z,100258.97
2022-11-25T08:40:45.475Z,100272.50
2022-11-25T08:45:48.597Z,100276.28
2022-11-25T08:50:55.529Z,100275.81
2022-11-25T08:55:58.277Z,100279.31
2022-11-25T09:01:01.200Z,100274.47
2022-11-25T09:06:06.071Z,100288.81
2022-11-25T09:11:09.881Z,100289.19
2022-11-25T09:16:12.829Z,100287.75
2022-11-25T09:21:18.657Z,100303.94
2022-11-25T09:26:24.632Z,100301.50
2022-11-25T09:31:27.659Z,100309.25
2022-11-25T09:36:31.874Z,100315.91
2022-11-25T09:42:11.436Z,100317.53
2022-11-25T09:47:23.707Z,100316.91
2022-11-25T09:52:38.263Z,100319.38
2022-11-25T09:57:59.111Z,100321.78
2022-11-25T10:03:07.903Z,100325.13
2022-11-25T10:08:16.848Z,100321.06
2022-11-25T10:13:23.169Z,100324.97
2022-11-25T10:18:30.868Z,100322.81
2022-11-25T10:23:38.630Z,100324.00
2022-11-25T10:28:46.402Z,100334.91
2022-11-25T10:33:52.864Z,100333.53
2022-11-25T10:39:00.945Z,100339.84
2022-11-25T10:44:04.955Z,100345.97
2022-11-25T10:49:15.695Z,100341.97
2022-11-25T10:54:27.495Z,100344.47
2022-11-25T10:59:33.244Z,100351.56
2022-11-25T11:04:37.673Z,100354.91
2022-11-25T11:09:42.095Z,100349.31
2022-11-25T11:14:44.858Z,100350.06
2022-11-25T11:20:02.151Z,100346.50
2022-11-25T11:25:24.275Z,100355.91
2022-11-25T11:30:29.459Z,100359.88
2022-11-25T11:35:47.903Z,100368.28
2022-11-25T11:40:56.264Z,100375.66
2022-11-25T11:46:12.661Z,100378.69
2022-11-25T11:51:23.807Z,100386.72
2022-11-25T11:56:36.186Z,100389.16
2022-11-25T12:01:50.070Z,100398.66
2022-11-25T12:07:03.621Z,100405.22
2022-11-25T12:12:14.271Z,100410.31
2022-11-25T12:17:21.756Z,100420.88
2022-11-25T12:22:29.942Z,100418.53
2022-11-25T12:27:38.751Z,100418.81
2022-11-25T12:32:58.070Z,100424.13
2022-11-25T12:38:09.919Z,100420.03
2022-11-25T12:43:26.830Z,100428.72
2022-11-25T12:48:29.656Z,100430.19
2022-11-25T12:53:42.635Z,100433.69
2022-11-25T12:59:04.360Z,100434.50
2022-11-25T13:04:38.453Z,100447.06
2022-11-25T13:09:57.572Z,100451.13
2022-11-25T13:15:21.520Z,100456.97
2022-11-25T13:20:38.081Z,100472.41
2022-11-25T13:25:43.380Z,100470.19
2022-11-25T13:30:51.514Z,100474.72
2022-11-25T13:35:55.151Z,100487.28
2022-11-25T13:41:00.208Z,100488.78
2022-11-25T13:46:04.489Z,100498.19
2022-11-25T13:51:19.727Z,100503.50
2022-11-25T13:56:29.413Z,100512.81
2022-11-25T14:01:33.532Z,100511.38
2022-11-25T14:07:02.760Z,100525.41
2022-11-25T14:12:34.696Z,100537.88
2022-11-25T14:18:09.932Z,100533.72
2022-11-25T14:23:50.593Z,100536.41
2022-11-25T14:28:58.906Z,100537.56
2022-11-25T14:34:12.017Z,100549.63
2022-11-25T14:39:22.750Z,100555.41
2022-11-25T14:44:29.559Z,100560.03
2022-11-25T14:49:55.730Z,100569.66
2022-11-25T14:55:12.783Z,100573.22
2022-11-25T15:00:17.789Z,100580.13
2022-11-25T15:05:26.059Z,100586.75
2022-11-25T15:10:42.054Z,100585.69
2022-11-25T15:15:49.319Z,100595.97
2022-11-25T15:20:58.359Z,100601.88
2022-11-25T15:26:02.162Z,100596.66
2022-11-25T15:31:10.488Z,100603.69
2022-11-25T15:36:14.711Z,100604.66
2022-11-25T15:41:21.637Z,100618.66
2022-11-25T15:46:25.558Z,100616.75
2022-11-25T15:51:41.573Z,100630.00
2022-11-25T15:56:48.964Z,100643.81
2022-11-25T16:01:51.816Z,100646.28
2022-11-25T16:06:59.499Z,100656.97
2022-11-25T16:12:07.403Z,100659.44
2022-11-25T16:17:13.011Z,100666.84
2022-11-25T16:22:19.900Z,100670.34
2022-11-25T16:27:25.318Z,100685.75
2022-11-25T16:32:31.508Z,100679.47
2022-11-25T16:37:35.619Z,100698.53
2022-11-25T16:42:39.052Z,100710.28
2022-11-25T16:47:41.772Z,100725.16
2022-11-25T16:52:45.724Z,100735.66
2022-11-25T16:57:48.468Z,100742.28
2022-11-25T17:02:51.264Z,100745.56
2022-11-25T17:07:55.477Z,100742.84
2022-11-25T17:12:58.380Z,100752.75
2022-11-25T17:18:01.920Z,100755.06
2022-11-25T17:23:13.124Z,100765.78
2022-11-25T17:28:18.387Z,100772.22
2022-11-25T17:33:21.322Z,100780.88
2022-11-25T17:38:25.448Z,100780.44
2022-11-25T17:43:34.363Z,100793.44
2022-11-25T17:48:37.990Z,100798.19
2022-11-25T17:53:42.755Z,100817.00
2022-11-25T17:58:45.796Z,100816.34
2022-11-25T18:03:49.440Z,100835.19
2022-11-25T18:08:53.533Z,100837.06
2022-11-25T18:13:56.522Z,100843.41
2022-11-25T18:18:59.290Z,100843.72
2022-11-25T18:24:03.483Z,100857.19
2022-11-25T18:29:07.975Z,100868.09
2022-11-25T18:34:15.374Z,100877.63
2022-11-25T18:39:19.777Z,100878.03
2022-11-25T18:44:37.498Z,100888.25
2022-11-25T18:49:40.374Z,100890.88
2022-11-25T18:54:44.478Z,100896.47
2022-11-25T18:59:55.992Z,100904.38
2022-11-25T19:05:03.828Z,100914.53
2022-11-25T19:10:13.577Z,100915.88
2022-11-25T19:15:21.286Z,100920.53
2022-11-25T19:20:25.001Z,100935.47
2022-11-25T19:25:29.568Z,100938.16
2022-11-25T19:30:33.384Z,100938.44
2022-11-25T19:35:38.558Z,100952.47
2022-11-25T19:40:42.755Z,100964.72
2022-11-25T19:45:46.439Z,100971.59
2022-11-25T19:50:51.925Z,100984.81
2022-11-25T19:55:56.030Z,101001.69
2022-11-25T20:01:03.090Z,101007.63
2022-11-25T20:06:06.448Z,101011.28
2022-11-25T20:11:13.000Z,101023.44
2022-11-25T20:16:19.124Z,101040.09
2022-11-25T20:21:27.706Z,101045.59
2022-11-25T20:26:35.248Z,101051.56
2022-11-25T20:31:38.013Z,101065.78
2022-11-25T20:36:42.294Z,101076.00
2022-11-25T20:41:49.103Z,101081.56
2022-11-25T20:46:51.879Z,101092.03
2022-11-25T20:51:54.661Z,101101.38
2022-11-25T20:57:00.592Z,101106.00
2022-11-25T21:02:03.388Z,101109.72
2022-11-25T21:07:11.552Z,101118.63
2022-11-25T21:12:19.590Z,101130.47
2022-11-25T21:17:22.497Z,101137.50
2022-11-25T21:22:25.097Z,101143.34
2022-11-25T21:27:29.325Z,101148.44
2022-11-25T21:32:32.171Z,101150.59
2022-11-25T21:37:36.662Z,101152.59
2022-11-25T21:42:40.819Z,101159.31
2022-11-25T21:47:43.623Z,101173.09
2022-11-25T21:52:46.601Z,101184.28
2022-11-25T21:57:51.318Z,101174.03
2022-11-25T22:02:54.153Z,101176.44
2022-11-25T22:07:57.146Z,101181.91
2022-11-25T22:13:01.511Z,101180.78
2022-11-25T22:18:04.275Z,101182.88
2022-11-25T22:23:14.851Z,101199.06
2022-11-25T22:28:21.506Z,101207.00
2022-11-25T22:33:29.891Z,101215.78
2022-11-25T22:38:32.666Z,101221.28
2022-11-25T22:43:43.814Z,101234.25
2022-11-25T22:48:47.126Z,101237.69
2022-11-25T22:53:49.977Z,101240.53
2022-11-25T22:58:59.980Z,101238.94
2022-11-25T23:04:03.013Z,101251.59
2022-11-25T23:09:11.189Z,101247.97
2022-11-25T23:14:15.573Z,101253.59
2022-11-25T23:19:18.341Z,101264.91
2022-11-25T23:24:21.118Z,101265.47
2022-11-25T23:29:25.548Z,101272.78
2022-11-25T23:34:28.356Z,101273.88
2022-11-25T23:39:32.347Z,101287.38
2022-11-25T23:44:36.805Z,101295.81
2022-11-25T23:49:44.098Z,101303.81
2022-11-25T23:54:48.812Z,101315.53
2022-11-25T23:59:53.614Z,101314.19
